sensor_id;sensor_type;location;lat;lon;timestamp;P1;durP1;ratioP1;P2;durP2;ratioP2
60614;SDS011;46444;45.590;5.284;2022-09-09T00:00:15;5.65;;;1.10;;
60614;SDS011;46444;45.590;5.284;2022-09-09T00:03:05;7.75;;;1.60;;
60614;SDS011;46444;45.590;5.284;2022-09-09T00:08:07;2.88;;;1.20;;
60614;SDS011;46444;45.590;5.284;2022-09-09T00:10:42;3.03;;;1.10;;
60614;SDS011;46444;45.590;5.284;2022-09-09T00:18:29;4.18;;;1.52;;
60614;SDS011;46444;45.590;5.284;2022-09-09T00:21:15;4.70;;;1.52;;
60614;SDS011;46444;45.590;5.284;2022-09-09T00:23:47;3.47;;;1.23;;
60614;SDS011;46444;45.590;5.284;2022-09-09T00:26:19;4.38;;;1.30;;
60614;SDS011;46444;45.590;5.284;2022-09-09T00:29:18;3.88;;;1.20;;
60614;SDS011;46444;45.590;5.284;2022-09-09T00:31:45;6.97;;;1.10;;
60614;SDS011;46444;45.590;5.284;2022-09-09T00:34:24;4.28;;;1.35;;
60614;SDS011;46444;45.590;5.284;2022-09-09T00:36:52;4.43;;;1.10;;
60614;SDS011;46444;45.590;5.284;2022-09-09T00:39:25;5.28;;;1.27;;
60614;SDS011;46444;45.590;5.284;2022-09-09T00:44:52;2.97;;;1.20;;
60614;SDS011;46444;45.590;5.284;2022-09-09T00:47:34;3.13;;;1.20;;
60614;SDS011;46444;45.590;5.284;2022-09-09T00:50:34;3.53;;;1.20;;
60614;SDS011;46444;45.590;5.284;2022-09-09T00:56:13;4.95;;;1.35;;
60614;SDS011;46444;45.590;5.284;2022-09-09T00:58:53;3.30;;;1.25;;
60614;SDS011;46444;45.590;5.284;2022-09-09T01:01:29;3.60;;;1.10;;
60614;SDS011;46444;45.590;5.284;2022-09-09T01:03:56;1.58;;;1.00;;
60614;SDS011;46444;45.590;5.284;2022-09-09T01:06:34;3.20;;;1.20;;
60614;SDS011;46444;45.590;5.284;2022-09-09T01:17:17;5.32;;;1.02;;
60614;SDS011;46444;45.590;5.284;2022-09-09T01:22:52;3.13;;;1.35;;
60614;SDS011;46444;45.590;5.284;2022-09-09T01:28:48;6.22;;;1.40;;
60614;SDS011;46444;45.590;5.284;2022-09-09T01:31:26;3.22;;;1.23;;
60614;SDS011;46444;45.590;5.284;2022-09-09T01:33:55;5.28;;;1.30;;
60614;SDS011;46444;45.590;5.284;2022-09-09T01:39:04;5.38;;;1.30;;
60614;SDS011;46444;45.590;5.284;2022-09-09T01:41:30;2.75;;;1.00;;
60614;SDS011;46444;45.590;5.284;2022-09-09T01:43:55;4.13;;;1.13;;
60614;SDS011;46444;45.590;5.284;2022-09-09T01:46:22;5.80;;;1.20;;
60614;SDS011;46444;45.590;5.284;2022-09-09T01:48:48;4.45;;;1.27;;
60614;SDS011;46444;45.590;5.284;2022-09-09T01:51:16;5.53;;;1.13;;
60614;SDS011;46444;45.590;5.284;2022-09-09T01:53:41;3.42;;;1.08;;
60614;SDS011;46444;45.590;5.284;2022-09-09T02:07:02;3.83;;;1.20;;
60614;SDS011;46444;45.590;5.284;2022-09-09T02:09:50;4.40;;;1.35;;
60614;SDS011;46444;45.590;5.284;2022-09-09T02:12:22;6.20;;;1.35;;
60614;SDS011;46444;45.590;5.284;2022-09-09T02:14:51;3.53;;;1.40;;
60614;SDS011;46444;45.590;5.284;2022-09-09T02:17:24;5.63;;;1.17;;
60614;SDS011;46444;45.590;5.284;2022-09-09T02:19:55;6.03;;;1.50;;
60614;SDS011;46444;45.590;5.284;2022-09-09T02:22:27;7.10;;;1.60;;
60614;SDS011;46444;45.590;5.284;2022-09-09T02:24:54;6.53;;;1.58;;
60614;SDS011;46444;45.590;5.284;2022-09-09T02:27:23;3.40;;;1.35;;
60614;SDS011;46444;45.590;5.284;2022-09-09T02:29:48;4.97;;;1.20;;
60614;SDS011;46444;45.590;5.284;2022-09-09T02:32:20;3.55;;;1.30;;
60614;SDS011;46444;45.590;5.284;2022-09-09T02:35:11;4.68;;;1.45;;
60614;SDS011;46444;45.590;5.284;2022-09-09T02:37:36;4.63;;;1.58;;
60614;SDS011;46444;45.590;5.284;2022-09-09T02:40:04;3.47;;;1.23;;
60614;SDS011;46444;45.590;5.284;2022-09-09T02:42:31;7.70;;;1.50;;
60614;SDS011;46444;45.590;5.284;2022-09-09T02:44:57;3.03;;;1.30;;
60614;SDS011;46444;45.590;5.284;2022-09-09T02:47:59;6.55;;;1.50;;
60614;SDS011;46444;45.590;5.284;2022-09-09T02:50:35;5.80;;;1.30;;
60614;SDS011;46444;45.590;5.284;2022-09-09T02:53:14;6.75;;;1.30;;
60614;SDS011;46444;45.590;5.284;2022-09-09T02:55:46;4.05;;;1.52;;
60614;SDS011;46444;45.590;5.284;2022-09-09T02:58:14;5.47;;;1.30;;
60614;SDS011;46444;45.590;5.284;2022-09-09T03:00:42;4.10;;;1.40;;
60614;SDS011;46444;45.590;5.284;2022-09-09T03:03:08;3.40;;;1.40;;
60614;SDS011;46444;45.590;5.284;2022-09-09T03:05:34;4.45;;;1.33;;
60614;SDS011;46444;45.590;5.284;2022-09-09T03:08:00;4.50;;;1.30;;
60614;SDS011;46444;45.590;5.284;2022-09-09T03:10:27;5.03;;;1.17;;
60614;SDS011;46444;45.590;5.284;2022-09-09T03:12:52;5.53;;;1.20;;
60614;SDS011;46444;45.590;5.284;2022-09-09T03:15:18;3.70;;;1.42;;
60614;SDS011;46444;45.590;5.284;2022-09-09T03:17:43;4.60;;;1.60;;
60614;SDS011;46444;45.590;5.284;2022-09-09T03:20:09;4.30;;;1.40;;
60614;SDS011;46444;45.590;5.284;2022-09-09T03:22:35;5.93;;;1.40;;
60614;SDS011;46444;45.590;5.284;2022-09-09T03:25:00;3.40;;;1.40;;
60614;SDS011;46444;45.590;5.284;2022-09-09T03:27:27;5.72;;;1.40;;
60614;SDS011;46444;45.590;5.284;2022-09-09T03:29:53;6.55;;;1.52;;
60614;SDS011;46444;45.590;5.284;2022-09-09T03:32:18;7.45;;;1.63;;
60614;SDS011;46444;45.590;5.284;2022-09-09T03:34:44;6.47;;;1.48;;
60614;SDS011;46444;45.590;5.284;2022-09-09T03:37:09;5.50;;;1.10;;
60614;SDS011;46444;45.590;5.284;2022-09-09T03:39:35;3.42;;;1.35;;
60614;SDS011;46444;45.590;5.284;2022-09-09T03:42:00;5.85;;;1.40;;
60614;SDS011;46444;45.590;5.284;2022-09-09T03:44:28;4.43;;;1.15;;
60614;SDS011;46444;45.590;5.284;2022-09-09T03:46:54;4.78;;;1.50;;
60614;SDS011;46444;45.590;5.284;2022-09-09T03:49:19;4.13;;;1.30;;
60614;SDS011;46444;45.590;5.284;2022-09-09T03:51:45;5.23;;;1.50;;
60614;SDS011;46444;45.590;5.284;2022-09-09T03:54:11;6.00;;;1.60;;
60614;SDS011;46444;45.590;5.284;2022-09-09T03:56:37;5.43;;;1.40;;
60614;SDS011;46444;45.590;5.284;2022-09-09T03:59:02;3.13;;;1.10;;
60614;SDS011;46444;45.590;5.284;2022-09-09T04:01:28;3.20;;;1.40;;
60614;SDS011;46444;45.590;5.284;2022-09-09T04:03:54;2.75;;;1.20;;
60614;SDS011;46444;45.590;5.284;2022-09-09T04:06:23;5.57;;;1.30;;
60614;SDS011;46444;45.590;5.284;2022-09-09T04:08:49;4.55;;;1.40;;
60614;SDS011;46444;45.590;5.284;2022-09-09T04:11:14;4.47;;;1.30;;
60614;SDS011;46444;45.590;5.284;2022-09-09T04:13:40;6.03;;;1.55;;
60614;SDS011;46444;45.590;5.284;2022-09-09T04:16:06;4.50;;;1.30;;
60614;SDS011;46444;45.590;5.284;2022-09-09T04:18:34;2.72;;;1.08;;
60614;SDS011;46444;45.590;5.284;2022-09-09T04:20:59;5.75;;;1.60;;
60614;SDS011;46444;45.590;5.284;2022-09-09T04:23:26;4.20;;;1.27;;
60614;SDS011;46444;45.590;5.284;2022-09-09T04:25:54;2.63;;;1.10;;
60614;SDS011;46444;45.590;5.284;2022-09-09T04:28:22;2.63;;;1.20;;
60614;SDS011;46444;45.590;5.284;2022-09-09T04:30:48;5.82;;;1.70;;
60614;SDS011;46444;45.590;5.284;2022-09-09T04:33:14;4.85;;;1.35;;
60614;SDS011;46444;45.590;5.284;2022-09-09T04:35:44;4.45;;;1.33;;
60614;SDS011;46444;45.590;5.284;2022-09-09T04:38:12;3.08;;;1.48;;
60614;SDS011;46444;45.590;5.284;2022-09-09T04:40:37;5.28;;;1.55;;
60614;SDS011;46444;45.590;5.284;2022-09-09T04:43:05;5.38;;;1.63;;
60614;SDS011;46444;45.590;5.284;2022-09-09T04:45:30;7.70;;;1.75;;
60614;SDS011;46444;45.590;5.284;2022-09-09T04:47:56;7.00;;;1.80;;
60614;SDS011;46444;45.590;5.284;2022-09-09T04:50:22;5.78;;;1.30;;
60614;SDS011;46444;45.590;5.284;2022-09-09T04:52:47;5.32;;;1.80;;
60614;SDS011;46444;45.590;5.284;2022-09-09T04:55:13;4.32;;;1.85;;
60614;SDS011;46444;45.590;5.284;2022-09-09T04:57:39;5.18;;;1.70;;
60614;SDS011;46444;45.590;5.284;2022-09-09T05:00:05;5.47;;;2.05;;
60614;SDS011;46444;45.590;5.284;2022-09-09T05:02:31;3.78;;;1.70;;
60614;SDS011;46444;45.590;5.284;2022-09-09T05:04:57;5.32;;;1.80;;
60614;SDS011;46444;45.590;5.284;2022-09-09T05:07:23;8.68;;;1.77;;
60614;SDS011;46444;45.590;5.284;2022-09-09T05:09:48;4.88;;;1.75;;
60614;SDS011;46444;45.590;5.284;2022-09-09T05:12:14;4.93;;;1.70;;
60614;SDS011;46444;45.590;5.284;2022-09-09T05:14:41;10.20;;;1.90;;
60614;SDS011;46444;45.590;5.284;2022-09-09T05:17:07;7.57;;;1.88;;
60614;SDS011;46444;45.590;5.284;2022-09-09T05:19:33;3.90;;;1.40;;
60614;SDS011;46444;45.590;5.284;2022-09-09T05:21:58;5.72;;;1.85;;
60614;SDS011;46444;45.590;5.284;2022-09-09T05:24:23;11.27;;;2.10;;
60614;SDS011;46444;45.590;5.284;2022-09-09T05:26:49;6.97;;;2.08;;
60614;SDS011;46444;45.590;5.284;2022-09-09T05:29:14;3.33;;;1.77;;
60614;SDS011;46444;45.590;5.284;2022-09-09T05:31:39;7.97;;;1.90;;
60614;SDS011;46444;45.590;5.284;2022-09-09T05:34:05;5.00;;;2.00;;
60614;SDS011;46444;45.590;5.284;2022-09-09T05:36:31;5.55;;;1.83;;
60614;SDS011;46444;45.590;5.284;2022-09-09T05:38:56;5.23;;;1.97;;
60614;SDS011;46444;45.590;5.284;2022-09-09T05:41:21;2.67;;;1.90;;
60614;SDS011;46444;45.590;5.284;2022-09-09T05:43:48;6.18;;;1.88;;
60614;SDS011;46444;45.590;5.284;2022-09-09T05:46:14;4.93;;;1.85;;
60614;SDS011;46444;45.590;5.284;2022-09-09T05:48:42;6.38;;;2.00;;
60614;SDS011;46444;45.590;5.284;2022-09-09T05:51:12;7.25;;;2.03;;
60614;SDS011;46444;45.590;5.284;2022-09-09T05:53:43;6.03;;;1.85;;
60614;SDS011;46444;45.590;5.284;2022-09-09T05:56:10;8.38;;;1.70;;
60614;SDS011;46444;45.590;5.284;2022-09-09T05:58:37;7.00;;;1.90;;
60614;SDS011;46444;45.590;5.284;2022-09-09T06:01:07;6.93;;;2.08;;
60614;SDS011;46444;45.590;5.284;2022-09-09T06:03:36;5.93;;;1.80;;
60614;SDS011;46444;45.590;5.284;2022-09-09T06:06:04;4.15;;;1.73;;
60614;SDS011;46444;45.590;5.284;2022-09-09T06:08:34;10.45;;;1.88;;
60614;SDS011;46444;45.590;5.284;2022-09-09T06:11:11;6.78;;;2.10;;
60614;SDS011;46444;45.590;5.284;2022-09-09T06:13:44;5.30;;;2.17;;
60614;SDS011;46444;45.590;5.284;2022-09-09T06:16:10;7.53;;;1.77;;
60614;SDS011;46444;45.590;5.284;2022-09-09T06:18:40;5.35;;;2.10;;
60614;SDS011;46444;45.590;5.284;2022-09-09T06:21:06;3.97;;;2.10;;
60614;SDS011;46444;45.590;5.284;2022-09-09T06:23:34;8.20;;;2.13;;
60614;SDS011;46444;45.590;5.284;2022-09-09T06:26:07;7.05;;;2.35;;
60614;SDS011;46444;45.590;5.284;2022-09-09T06:28:34;7.40;;;2.20;;
60614;SDS011;46444;45.590;5.284;2022-09-09T06:31:00;5.82;;;2.20;;
60614;SDS011;46444;45.590;5.284;2022-09-09T06:33:30;7.55;;;2.10;;
60614;SDS011;46444;45.590;5.284;2022-09-09T06:35:56;5.70;;;2.08;;
60614;SDS011;46444;45.590;5.284;2022-09-09T06:38:22;9.88;;;2.17;;
60614;SDS011;46444;45.590;5.284;2022-09-09T06:40:51;5.55;;;1.88;;
60614;SDS011;46444;45.590;5.284;2022-09-09T06:43:21;5.03;;;1.70;;
60614;SDS011;46444;45.590;5.284;2022-09-09T06:45:57;5.55;;;1.90;;
60614;SDS011;46444;45.590;5.284;2022-09-09T06:48:24;6.65;;;2.20;;
60614;SDS011;46444;45.590;5.284;2022-09-09T06:53:38;3.15;;;1.50;;
60614;SDS011;46444;45.590;5.284;2022-09-09T06:58:37;6.55;;;1.92;;
60614;SDS011;46444;45.590;5.284;2022-09-09T07:01:08;5.10;;;1.77;;
60614;SDS011;46444;45.590;5.284;2022-09-09T07:03:34;5.80;;;1.88;;
60614;SDS011;46444;45.590;5.284;2022-09-09T07:06:00;9.00;;;2.10;;
60614;SDS011;46444;45.590;5.284;2022-09-09T07:08:27;6.63;;;2.17;;
60614;SDS011;46444;45.590;5.284;2022-09-09T07:10:53;11.15;;;2.40;;
60614;SDS011;46444;45.590;5.284;2022-09-09T07:13:25;8.65;;;2.40;;
60614;SDS011;46444;45.590;5.284;2022-09-09T07:15:52;4.70;;;2.00;;
60614;SDS011;46444;45.590;5.284;2022-09-09T07:18:18;11.40;;;2.35;;
60614;SDS011;46444;45.590;5.284;2022-09-09T07:20:52;8.90;;;2.20;;
60614;SDS011;46444;45.590;5.284;2022-09-09T07:23:18;7.35;;;2.53;;
60614;SDS011;46444;45.590;5.284;2022-09-09T07:25:44;7.17;;;2.10;;
60614;SDS011;46444;45.590;5.284;2022-09-09T07:28:10;4.90;;;1.70;;
60614;SDS011;46444;45.590;5.284;2022-09-09T07:30:35;7.30;;;2.22;;
60614;SDS011;46444;45.590;5.284;2022-09-09T07:33:01;4.68;;;1.73;;
60614;SDS011;46444;45.590;5.284;2022-09-09T07:35:27;5.80;;;1.40;;
60614;SDS011;46444;45.590;5.284;2022-09-09T07:37:52;4.88;;;1.50;;
60614;SDS011;46444;45.590;5.284;2022-09-09T07:40:18;4.78;;;1.83;;
60614;SDS011;46444;45.590;5.284;2022-09-09T07:42:45;2.85;;;1.63;;
60614;SDS011;46444;45.590;5.284;2022-09-09T07:45:11;4.60;;;1.60;;
60614;SDS011;46444;45.590;5.284;2022-09-09T07:47:37;6.60;;;1.63;;
60614;SDS011;46444;45.590;5.284;2022-09-09T07:50:02;3.45;;;1.33;;
60614;SDS011;46444;45.590;5.284;2022-09-09T07:52:28;3.92;;;1.52;;
60614;SDS011;46444;45.590;5.284;2022-09-09T07:54:53;3.38;;;1.30;;
60614;SDS011;46444;45.590;5.284;2022-09-09T07:57:18;4.70;;;1.20;;
60614;SDS011;46444;45.590;5.284;2022-09-09T07:59:44;3.65;;;1.45;;
60614;SDS011;46444;45.590;5.284;2022-09-09T08:02:09;5.10;;;1.13;;
60614;SDS011;46444;45.590;5.284;2022-09-09T08:04:35;3.90;;;1.40;;
60614;SDS011;46444;45.590;5.284;2022-09-09T08:07:01;2.55;;;1.30;;
60614;SDS011;46444;45.590;5.284;2022-09-09T08:09:28;3.72;;;1.38;;
60614;SDS011;46444;45.590;5.284;2022-09-09T08:11:54;4.05;;;1.35;;
60614;SDS011;46444;45.590;5.284;2022-09-09T08:14:21;4.97;;;1.20;;
60614;SDS011;46444;45.590;5.284;2022-09-09T08:16:48;3.83;;;1.42;;
60614;SDS011;46444;45.590;5.284;2022-09-09T08:19:15;6.80;;;1.40;;
60614;SDS011;46444;45.590;5.284;2022-09-09T08:21:41;6.03;;;1.65;;
60614;SDS011;46444;45.590;5.284;2022-09-09T08:24:08;6.15;;;1.70;;
60614;SDS011;46444;45.590;5.284;2022-09-09T08:26:38;5.75;;;1.30;;
60614;SDS011;46444;45.590;5.284;2022-09-09T08:31:33;4.15;;;1.20;;
60614;SDS011;46444;45.590;5.284;2022-09-09T08:34:02;3.40;;;1.30;;
60614;SDS011;46444;45.590;5.284;2022-09-09T08:36:29;5.50;;;1.17;;
60614;SDS011;46444;45.590;5.284;2022-09-09T08:38:58;4.93;;;1.40;;
60614;SDS011;46444;45.590;5.284;2022-09-09T08:44:01;2.90;;;1.20;;
60614;SDS011;46444;45.590;5.284;2022-09-09T08:46:39;3.72;;;1.20;;
60614;SDS011;46444;45.590;5.284;2022-09-09T08:51:58;5.50;;;1.40;;
60614;SDS011;46444;45.590;5.284;2022-09-09T08:54:23;3.42;;;1.40;;
60614;SDS011;46444;45.590;5.284;2022-09-09T08:56:57;2.85;;;1.15;;
60614;SDS011;46444;45.590;5.284;2022-09-09T08:59:22;6.47;;;1.10;;
60614;SDS011;46444;45.590;5.284;2022-09-09T09:04:28;4.07;;;1.50;;
60614;SDS011;46444;45.590;5.284;2022-09-09T09:09:52;2.72;;;1.13;;
60614;SDS011;46444;45.590;5.284;2022-09-09T09:12:24;2.08;;;0.90;;
60614;SDS011;46444;45.590;5.284;2022-09-09T09:14:51;5.15;;;1.02;;
60614;SDS011;46444;45.590;5.284;2022-09-09T09:17:20;3.85;;;0.98;;
60614;SDS011;46444;45.590;5.284;2022-09-09T09:19:48;3.25;;;0.80;;
60614;SDS011;46444;45.590;5.284;2022-09-09T09:22:32;3.97;;;1.27;;
60614;SDS011;46444;45.590;5.284;2022-09-09T09:28:00;3.45;;;0.90;;
60614;SDS011;46444;45.590;5.284;2022-09-09T09:30:35;7.60;;;1.05;;
60614;SDS011;46444;45.590;5.284;2022-09-09T09:36:08;4.38;;;0.90;;
60614;SDS011;46444;45.590;5.284;2022-09-09T09:38:34;4.43;;;1.05;;
60614;SDS011;46444;45.590;5.284;2022-09-09T09:41:00;3.15;;;1.00;;
60614;SDS011;46444;45.590;5.284;2022-09-09T09:45:59;2.45;;;0.90;;
60614;SDS011;46444;45.590;5.284;2022-09-09T09:48:25;3.70;;;0.88;;
60614;SDS011;46444;45.590;5.284;2022-09-09T09:50:53;4.10;;;1.13;;
60614;SDS011;46444;45.590;5.284;2022-09-09T09:53:33;3.80;;;1.10;;
60614;SDS011;46444;45.590;5.284;2022-09-09T09:56:02;6.03;;;1.20;;
60614;SDS011;46444;45.590;5.284;2022-09-09T09:58:33;3.33;;;1.10;;
60614;SDS011;46444;45.590;5.284;2022-09-09T10:01:02;4.68;;;1.00;;
60614;SDS011;46444;45.590;5.284;2022-09-09T10:03:28;3.47;;;1.10;;
60614;SDS011;46444;45.590;5.284;2022-09-09T10:05:55;3.83;;;0.88;;
60614;SDS011;46444;45.590;5.284;2022-09-09T10:08:22;3.92;;;1.05;;
60614;SDS011;46444;45.590;5.284;2022-09-09T10:13:46;5.07;;;1.00;;
60614;SDS011;46444;45.590;5.284;2022-09-09T10:16:57;3.22;;;0.90;;
60614;SDS011;46444;45.590;5.284;2022-09-09T10:19:33;4.28;;;0.82;;
60614;SDS011;46444;45.590;5.284;2022-09-09T10:30:19;4.35;;;1.20;;
60614;SDS011;46444;45.590;5.284;2022-09-09T10:40:34;4.28;;;1.10;;
60614;SDS011;46444;45.590;5.284;2022-09-09T10:48:52;3.40;;;1.10;;
60614;SDS011;46444;45.590;5.284;2022-09-09T10:51:42;5.05;;;1.35;;
60614;SDS011;46444;45.590;5.284;2022-09-09T10:54:32;3.25;;;0.95;;
60614;SDS011;46444;45.590;5.284;2022-09-09T10:57:01;3.40;;;0.80;;
60614;SDS011;46444;45.590;5.284;2022-09-09T10:59:35;2.15;;;0.93;;
60614;SDS011;46444;45.590;5.284;2022-09-09T11:07:27;1.85;;;0.90;;
60614;SDS011;46444;45.590;5.284;2022-09-09T11:09:59;5.45;;;1.00;;
60614;SDS011;46444;45.590;5.284;2022-09-09T11:12:29;2.90;;;0.98;;
60614;SDS011;46444;45.590;5.284;2022-09-09T11:15:04;4.55;;;1.50;;
60614;SDS011;46444;45.590;5.284;2022-09-09T11:20:12;3.65;;;1.05;;
60614;SDS011;46444;45.590;5.284;2022-09-09T11:22:50;1.95;;;0.88;;
60614;SDS011;46444;45.590;5.284;2022-09-09T11:38:52;2.35;;;0.70;;
60614;SDS011;46444;45.590;5.284;2022-09-09T11:41:22;3.75;;;1.00;;
60614;SDS011;46444;45.590;5.284;2022-09-09T11:46:16;2.53;;;0.80;;
60614;SDS011;46444;45.590;5.284;2022-09-09T11:48:57;4.97;;;0.90;;
60614;SDS011;46444;45.590;5.284;2022-09-09T11:51:26;3.03;;;0.98;;
60614;SDS011;46444;45.590;5.284;2022-09-09T11:56:24;1.98;;;0.85;;
60614;SDS011;46444;45.590;5.284;2022-09-09T11:59:02;2.28;;;0.90;;
60614;SDS011;46444;45.590;5.284;2022-09-09T12:01:37;4.28;;;1.10;;
60614;SDS011;46444;45.590;5.284;2022-09-09T12:09:50;1.95;;;0.70;;
60614;SDS011;46444;45.590;5.284;2022-09-09T12:14:55;2.42;;;0.70;;
60614;SDS011;46444;45.590;5.284;2022-09-09T12:17:25;2.88;;;0.60;;
60614;SDS011;46444;45.590;5.284;2022-09-09T12:23:36;3.30;;;1.08;;
60614;SDS011;46444;45.590;5.284;2022-09-09T12:31:32;2.53;;;0.63;;
60614;SDS011;46444;45.590;5.284;2022-09-09T12:36:36;2.78;;;0.82;;
60614;SDS011;46444;45.590;5.284;2022-09-09T12:39:09;2.47;;;0.70;;
60614;SDS011;46444;45.590;5.284;2022-09-09T12:41:50;3.00;;;0.65;;
60614;SDS011;46444;45.590;5.284;2022-09-09T12:44:16;1.45;;;0.65;;
60614;SDS011;46444;45.590;5.284;2022-09-09T12:46:42;1.75;;;0.50;;
60614;SDS011;46444;45.590;5.284;2022-09-09T12:49:30;1.98;;;0.60;;
60614;SDS011;46444;45.590;5.284;2022-09-09T12:51:58;2.33;;;0.60;;
60614;SDS011;46444;45.590;5.284;2022-09-09T12:54:26;2.72;;;0.70;;
60614;SDS011;46444;45.590;5.284;2022-09-09T12:56:53;2.95;;;0.90;;
60614;SDS011;46444;45.590;5.284;2022-09-09T12:59:23;1.45;;;0.60;;
60614;SDS011;46444;45.590;5.284;2022-09-09T13:01:59;1.58;;;0.85;;
60614;SDS011;46444;45.590;5.284;2022-09-09T13:04:24;2.20;;;0.60;;
60614;SDS011;46444;45.590;5.284;2022-09-09T13:06:49;2.20;;;0.82;;
60614;SDS011;46444;45.590;5.284;2022-09-09T13:09:17;2.15;;;0.60;;
60614;SDS011;46444;45.590;5.284;2022-09-09T13:11:43;2.20;;;0.70;;
60614;SDS011;46444;45.590;5.284;2022-09-09T13:14:15;4.03;;;0.80;;
60614;SDS011;46444;45.590;5.284;2022-09-09T13:16:53;1.75;;;0.68;;
60614;SDS011;46444;45.590;5.284;2022-09-09T13:19:20;4.22;;;0.90;;
60614;SDS011;46444;45.590;5.284;2022-09-09T13:21:46;1.30;;;0.55;;
60614;SDS011;46444;45.590;5.284;2022-09-09T13:24:26;2.70;;;0.75;;
60614;SDS011;46444;45.590;5.284;2022-09-09T13:26:55;1.45;;;0.60;;
60614;SDS011;46444;45.590;5.284;2022-09-09T13:29:28;1.70;;;0.70;;
60614;SDS011;46444;45.590;5.284;2022-09-09T13:31:54;2.83;;;0.65;;
60614;SDS011;46444;45.590;5.284;2022-09-09T13:34:33;2.75;;;0.77;;
60614;SDS011;46444;45.590;5.284;2022-09-09T13:37:03;2.08;;;0.65;;
60614;SDS011;46444;45.590;5.284;2022-09-09T13:39:32;3.70;;;0.60;;
60614;SDS011;46444;45.590;5.284;2022-09-09T13:41:59;1.05;;;0.50;;
60614;SDS011;46444;45.590;5.284;2022-09-09T13:49:28;3.55;;;0.70;;
60614;SDS011;46444;45.590;5.284;2022-09-09T13:54:52;1.90;;;0.63;;
60614;SDS011;46444;45.590;5.284;2022-09-09T13:57:21;2.08;;;0.63;;
60614;SDS011;46444;45.590;5.284;2022-09-09T13:59:49;2.50;;;0.70;;
60614;SDS011;46444;45.590;5.284;2022-09-09T14:02:16;2.15;;;0.75;;
60614;SDS011;46444;45.590;5.284;2022-09-09T14:04:42;1.52;;;0.52;;
60614;SDS011;46444;45.590;5.284;2022-09-09T14:07:11;2.35;;;0.63;;
60614;SDS011;46444;45.590;5.284;2022-09-09T14:09:38;3.83;;;0.75;;
60614;SDS011;46444;45.590;5.284;2022-09-09T14:12:04;2.13;;;0.70;;
60614;SDS011;46444;45.590;5.284;2022-09-09T14:14:30;1.92;;;0.70;;
60614;SDS011;46444;45.590;5.284;2022-09-09T14:16:55;3.43;;;0.83;;
60614;SDS011;46444;45.590;5.284;2022-09-09T14:19:21;1.52;;;0.57;;
60614;SDS011;46444;45.590;5.284;2022-09-09T14:21:46;2.58;;;0.73;;
60614;SDS011;46444;45.590;5.284;2022-09-09T14:24:11;2.20;;;0.80;;
60614;SDS011;46444;45.590;5.284;2022-09-09T14:26:37;2.90;;;0.60;;
60614;SDS011;46444;45.590;5.284;2022-09-09T14:29:03;2.83;;;1.00;;
60614;SDS011;46444;45.590;5.284;2022-09-09T14:31:28;1.95;;;0.70;;
60614;SDS011;46444;45.590;5.284;2022-09-09T14:33:54;2.65;;;0.70;;
60614;SDS011;46444;45.590;5.284;2022-09-09T14:36:19;4.22;;;0.73;;
60614;SDS011;46444;45.590;5.284;2022-09-09T14:38:45;2.42;;;0.70;;
60614;SDS011;46444;45.590;5.284;2022-09-09T14:41:11;2.80;;;0.63;;
60614;SDS011;46444;45.590;5.284;2022-09-09T14:46:16;2.60;;;0.70;;
60614;SDS011;46444;45.590;5.284;2022-09-09T14:48:43;4.03;;;1.02;;
60614;SDS011;46444;45.590;5.284;2022-09-09T14:51:28;4.20;;;0.95;;
60614;SDS011;46444;45.590;5.284;2022-09-09T14:53:58;6.22;;;1.00;;
60614;SDS011;46444;45.590;5.284;2022-09-09T14:56:25;2.47;;;0.70;;
60614;SDS011;46444;45.590;5.284;2022-09-09T14:58:53;1.33;;;0.60;;
60614;SDS011;46444;45.590;5.284;2022-09-09T15:01:20;4.07;;;0.82;;
60614;SDS011;46444;45.590;5.284;2022-09-09T15:03:50;1.45;;;0.50;;
60614;SDS011;46444;45.590;5.284;2022-09-09T15:06:17;5.50;;;0.93;;
60614;SDS011;46444;45.590;5.284;2022-09-09T15:08:43;3.92;;;1.00;;
60614;SDS011;46444;45.590;5.284;2022-09-09T15:11:10;2.33;;;0.60;;
60614;SDS011;46444;45.590;5.284;2022-09-09T15:13:36;2.85;;;0.80;;
60614;SDS011;46444;45.590;5.284;2022-09-09T15:16:06;3.53;;;0.70;;
60614;SDS011;46444;45.590;5.284;2022-09-09T15:18:33;1.67;;;0.55;;
60614;SDS011;46444;45.590;5.284;2022-09-09T15:21:01;2.15;;;0.70;;
60614;SDS011;46444;45.590;5.284;2022-09-09T15:23:28;2.03;;;0.68;;
60614;SDS011;46444;45.590;5.284;2022-09-09T15:25:53;4.68;;;1.05;;
60614;SDS011;46444;45.590;5.284;2022-09-09T15:28:21;4.30;;;1.00;;
60614;SDS011;46444;45.590;5.284;2022-09-09T15:30:48;1.80;;;0.63;;
60614;SDS011;46444;45.590;5.284;2022-09-09T15:33:14;2.28;;;0.82;;
60614;SDS011;46444;45.590;5.284;2022-09-09T15:35:40;1.63;;;0.65;;
60614;SDS011;46444;45.590;5.284;2022-09-09T15:38:05;1.75;;;0.60;;
60614;SDS011;46444;45.590;5.284;2022-09-09T15:40:31;2.70;;;0.90;;
60614;SDS011;46444;45.590;5.284;2022-09-09T15:42:59;4.80;;;0.77;;
60614;SDS011;46444;45.590;5.284;2022-09-09T15:45:25;1.95;;;0.75;;
60614;SDS011;46444;45.590;5.284;2022-09-09T15:47:51;1.75;;;0.70;;
60614;SDS011;46444;45.590;5.284;2022-09-09T15:50:17;2.75;;;0.80;;
60614;SDS011;46444;45.590;5.284;2022-09-09T15:52:42;1.27;;;0.50;;
60614;SDS011;46444;45.590;5.284;2022-09-09T15:55:07;2.37;;;0.67;;
60614;SDS011;46444;45.590;5.284;2022-09-09T15:57:33;2.13;;;0.85;;
60614;SDS011;46444;45.590;5.284;2022-09-09T15:59:59;3.33;;;0.77;;
60614;SDS011;46444;45.590;5.284;2022-09-09T16:02:25;2.45;;;0.65;;
60614;SDS011;46444;45.590;5.284;2022-09-09T16:04:50;2.33;;;0.70;;
60614;SDS011;46444;45.590;5.284;2022-09-09T16:07:16;2.63;;;0.70;;
60614;SDS011;46444;45.590;5.284;2022-09-09T16:09:41;2.93;;;0.90;;
60614;SDS011;46444;45.590;5.284;2022-09-09T16:12:08;2.60;;;0.80;;
60614;SDS011;46444;45.590;5.284;2022-09-09T16:14:38;1.90;;;0.73;;
60614;SDS011;46444;45.590;5.284;2022-09-09T16:17:04;4.35;;;0.88;;
60614;SDS011;46444;45.590;5.284;2022-09-09T16:19:32;3.33;;;0.63;;
60614;SDS011;46444;45.590;5.284;2022-09-09T16:21:59;3.72;;;0.77;;
60614;SDS011;46444;45.590;5.284;2022-09-09T16:24:25;2.88;;;1.08;;
60614;SDS011;46444;45.590;5.284;2022-09-09T16:26:51;4.00;;;0.80;;
60614;SDS011;46444;45.590;5.284;2022-09-09T16:29:19;3.95;;;0.73;;
60614;SDS011;46444;45.590;5.284;2022-09-09T16:31:47;2.45;;;1.00;;
60614;SDS011;46444;45.590;5.284;2022-09-09T16:34:13;4.35;;;0.75;;
60614;SDS011;46444;45.590;5.284;2022-09-09T16:36:40;1.67;;;0.73;;
60614;SDS011;46444;45.590;5.284;2022-09-09T16:39:07;3.40;;;0.70;;
60614;SDS011;46444;45.590;5.284;2022-09-09T16:41:37;3.13;;;0.85;;
60614;SDS011;46444;45.590;5.284;2022-09-09T16:44:05;4.60;;;0.80;;
60614;SDS011;46444;45.590;5.284;2022-09-09T16:46:32;1.70;;;0.63;;
60614;SDS011;46444;45.590;5.284;2022-09-09T16:49:00;2.38;;;0.70;;
60614;SDS011;46444;45.590;5.284;2022-09-09T16:53:52;3.10;;;0.77;;
60614;SDS011;46444;45.590;5.284;2022-09-09T16:56:19;1.77;;;0.90;;
60614;SDS011;46444;45.590;5.284;2022-09-09T16:58:50;2.72;;;0.82;;
60614;SDS011;46444;45.590;5.284;2022-09-09T17:01:17;2.53;;;0.80;;
60614;SDS011;46444;45.590;5.284;2022-09-09T17:03:43;5.65;;;1.00;;
60614;SDS011;46444;45.590;5.284;2022-09-09T17:06:12;4.55;;;0.75;;
60614;SDS011;46444;45.590;5.284;2022-09-09T17:08:39;1.55;;;0.68;;
60614;SDS011;46444;45.590;5.284;2022-09-09T17:11:16;3.95;;;0.80;;
60614;SDS011;46444;45.590;5.284;2022-09-09T17:13:43;3.80;;;0.95;;
60614;SDS011;46444;45.590;5.284;2022-09-09T17:16:12;3.88;;;0.90;;
60614;SDS011;46444;45.590;5.284;2022-09-09T17:18:40;4.57;;;0.82;;
60614;SDS011;46444;45.590;5.284;2022-09-09T17:21:12;23.85;;;2.22;;
60614;SDS011;46444;45.590;5.284;2022-09-09T17:23:39;22.00;;;1.90;;
60614;SDS011;46444;45.590;5.284;2022-09-09T17:26:06;7.53;;;1.02;;
60614;SDS011;46444;45.590;5.284;2022-09-09T17:28:33;3.72;;;0.93;;
60614;SDS011;46444;45.590;5.284;2022-09-09T17:31:00;2.42;;;0.70;;